createdAt,value
2024-02-19T00:01:47.522Z,5.50
2024-02-19T00:04:16.224Z,5.50
2024-02-19T00:06:43.671Z,4.38
2024-02-19T00:09:11.072Z,4.88
2024-02-19T00:11:39.021Z,5.00
2024-02-19T00:14:06.462Z,4.47
2024-02-19T00:16:33.776Z,4.38
2024-02-19T00:19:01.202Z,4.35
2024-02-19T00:21:28.535Z,4.40
2024-02-19T00:23:55.856Z,4.30
2024-02-19T00:26:23.131Z,4.13
2024-02-19T00:28:50.538Z,4.13
2024-02-19T00:31:17.925Z,4.32
2024-02-19T00:33:45.375Z,5.20
2024-02-19T00:36:12.767Z,4.75
2024-02-19T00:38:40.109Z,4.73
2024-02-19T00:41:07.427Z,5.03
2024-02-19T00:43:34.752Z,5.70
2024-02-19T00:46:02.117Z,6.15
2024-02-19T00:48:29.547Z,5.65
2024-02-19T00:50:56.913Z,5.80
2024-02-19T00:53:24.254Z,7.20
2024-02-19T00:55:53.892Z,7.55
2024-02-19T00:58:21.550Z,5.60
2024-02-19T01:00:49.213Z,6.65
2024-02-19T01:03:18.252Z,6.43
2024-02-19T01:05:45.802Z,5.97
2024-02-19T01:08:13.135Z,5.90
2024-02-19T01:10:40.444Z,6.00
2024-02-19T01:13:07.837Z,7.97
2024-02-19T01:15:35.184Z,8.33
2024-02-19T01:18:02.602Z,9.43
2024-02-19T01:20:29.904Z,9.32
2024-02-19T01:22:59.055Z,11.02
2024-02-19T01:25:26.498Z,10.70
2024-02-19T01:27:53.928Z,10.97
2024-02-19T01:30:23.894Z,12.20
2024-02-19T01:32:51.646Z,11.20
2024-02-19T01:35:19.006Z,11.40
2024-02-19T01:37:47.290Z,9.68
2024-02-19T01:40:14.784Z,9.87
2024-02-19T01:42:42.523Z,9.70
2024-02-19T01:45:26.409Z,10.85
2024-02-19T01:47:57.406Z,8.85
2024-02-19T01:50:25.046Z,9.20
2024-02-19T01:52:52.709Z,7.50
2024-02-19T01:55:20.336Z,7.80
2024-02-19T01:57:48.235Z,7.93
2024-02-19T02:00:17.937Z,8.38
2024-02-19T02:02:45.464Z,7.65
2024-02-19T02:05:14.213Z,8.23
2024-02-19T02:07:42.645Z,7.60
2024-02-19T02:10:10.165Z,7.63
2024-02-19T02:12:37.631Z,8.32
2024-02-19T02:15:05.369Z,7.28
2024-02-19T02:17:32.765Z,7.87
2024-02-19T02:20:00.357Z,8.52
2024-02-19T02:22:27.922Z,7.88
2024-02-19T02:24:56.393Z,10.48
2024-02-19T02:27:23.783Z,9.40
2024-02-19T02:29:51.061Z,10.20
2024-02-19T02:32:18.434Z,9.32
2024-02-19T02:34:45.738Z,10.40
2024-02-19T02:37:13.866Z,10.90
2024-02-19T02:39:41.781Z,9.45
2024-02-19T02:42:09.136Z,9.80
2024-02-19T02:44:36.409Z,9.93
2024-02-19T02:47:04.517Z,10.20
2024-02-19T02:49:31.978Z,10.43
2024-02-19T02:51:59.336Z,9.90
2024-02-19T02:54:26.669Z,9.70
2024-02-19T02:56:53.942Z,9.88
2024-02-19T02:59:21.333Z,9.00
2024-02-19T03:01:49.388Z,8.80
2024-02-19T03:04:17.764Z,9.73
2024-02-19T03:06:45.347Z,8.50
2024-02-19T03:09:12.754Z,8.45
2024-02-19T03:11:40.052Z,7.55
2024-02-19T03:14:07.931Z,6.93
2024-02-19T03:16:35.542Z,7.55
2024-02-19T03:19:06.457Z,7.97
2024-02-19T03:21:33.894Z,8.52
2024-02-19T03:24:01.177Z,7.40
2024-02-19T03:28:59.163Z,7.93
2024-02-19T03:31:26.472Z,8.37
2024-02-19T03:33:53.957Z,8.65
2024-02-19T03:36:21.366Z,8.73
2024-02-19T03:38:48.618Z,6.80
2024-02-19T03:41:15.872Z,6.80
2024-02-19T03:43:43.175Z,6.23
2024-02-19T03:46:10.594Z,6.60
2024-02-19T03:48:38.498Z,9.05
2024-02-19T03:51:05.890Z,9.13
2024-02-19T03:53:33.160Z,10.00
2024-02-19T03:56:01.258Z,9.63
2024-02-19T03:58:28.573Z,10.77
2024-02-19T04:00:56.123Z,10.85
2024-02-19T04:03:23.496Z,10.48
2024-02-19T04:05:50.843Z,10.65
2024-02-19T04:08:18.316Z,10.47
2024-02-19T04:10:45.646Z,10.85
2024-02-19T04:13:13.018Z,9.52
2024-02-19T04:15:40.347Z,8.02
2024-02-19T04:18:07.754Z,6.60
2024-02-19T04:20:35.094Z,6.40
2024-02-19T04:23:02.397Z,6.25
2024-02-19T04:25:29.767Z,5.93
2024-02-19T04:27:57.118Z,5.18
2024-02-19T04:30:24.509Z,5.22
2024-02-19T04:32:51.837Z,5.53
2024-02-19T04:35:19.879Z,6.13
2024-02-19T04:37:47.191Z,5.25
2024-02-19T04:40:15.120Z,5.78
2024-02-19T04:42:42.503Z,5.10
2024-02-19T04:45:09.940Z,5.23
2024-02-19T04:47:37.337Z,5.65
2024-02-19T04:50:05.187Z,5.65
2024-02-19T04:52:32.636Z,5.95
2024-02-19T04:54:59.992Z,6.47
2024-02-19T04:57:27.276Z,5.77
2024-02-19T04:59:54.571Z,6.15
2024-02-19T05:02:21.877Z,6.38
2024-02-19T05:04:49.360Z,6.18
2024-02-19T05:07:17.062Z,6.68
2024-02-19T05:09:44.871Z,5.87
2024-02-19T05:12:12.133Z,6.30
2024-02-19T05:14:39.406Z,6.30
2024-02-19T05:17:06.663Z,5.82
2024-02-19T05:19:34.103Z,5.50
2024-02-19T05:22:01.955Z,6.00
2024-02-19T05:24:29.391Z,6.35
2024-02-19T05:26:56.684Z,6.30
2024-02-19T05:29:25.197Z,6.30
2024-02-19T05:31:55.611Z,6.22
2024-02-19T05:34:23.032Z,6.00
2024-02-19T05:36:50.401Z,5.78
2024-02-19T05:39:17.781Z,6.30
2024-02-19T05:41:45.077Z,5.75
2024-02-19T05:44:12.483Z,5.88
2024-02-19T05:46:39.784Z,6.17
2024-02-19T05:49:07.126Z,6.13
2024-02-19T05:51:34.525Z,5.57
2024-02-19T05:54:01.807Z,6.60
2024-02-19T05:56:30.303Z,6.22
2024-02-19T05:58:57.715Z,7.27
2024-02-19T06:01:25.294Z,7.88
2024-02-19T06:03:52.655Z,8.70
2024-02-19T06:06:19.976Z,7.45
2024-02-19T06:08:47.253Z,7.78
2024-02-19T06:11:14.616Z,7.60
2024-02-19T06:13:41.924Z,6.97
2024-02-19T06:16:09.323Z,8.10
2024-02-19T06:18:36.798Z,8.05
2024-02-19T06:21:04.319Z,7.57
2024-02-19T06:23:31.581Z,7.60
2024-02-19T06:25:59.473Z,7.63
2024-02-19T06:28:26.824Z,8.45
2024-02-19T06:30:54.379Z,8.75
2024-02-19T06:33:21.751Z,8.20
2024-02-19T06:35:50.311Z,8.70
2024-02-19T06:38:17.671Z,8.30
2024-02-19T06:40:44.926Z,9.45
2024-02-19T06:43:12.210Z,9.10
2024-02-19T06:45:39.689Z,9.45
2024-02-19T06:48:07.287Z,9.37
2024-02-19T06:50:34.720Z,7.97
2024-02-19T06:53:02.072Z,7.53
2024-02-19T06:55:29.469Z,8.07
2024-02-19T06:57:57.088Z,8.35
2024-02-19T07:00:26.697Z,7.13
2024-02-19T07:02:54.064Z,8.05
2024-02-19T07:05:21.633Z,9.35
2024-02-19T07:07:49.067Z,8.48
2024-02-19T07:10:16.561Z,8.75
2024-02-19T07:12:43.943Z,10.23
2024-02-19T07:15:11.338Z,9.10
2024-02-19T07:17:38.647Z,9.57
2024-02-19T07:20:06.524Z,10.10
2024-02-19T07:22:33.978Z,8.85
2024-02-19T07:25:10.189Z,10.43
2024-02-19T07:27:44.431Z,9.68
2024-02-19T07:30:13.649Z,9.40
2024-02-19T07:32:41.071Z,8.63
2024-02-19T07:35:08.654Z,9.38
2024-02-19T07:37:36.141Z,10.40
2024-02-19T07:40:08.650Z,9.70
2024-02-19T07:42:36.146Z,9.10
2024-02-19T07:45:06.649Z,9.15
2024-02-19T07:47:34.374Z,9.23
2024-02-19T07:50:01.963Z,9.20
2024-02-19T07:52:29.383Z,8.73
2024-02-19T07:54:56.868Z,9.20
2024-02-19T07:57:24.206Z,9.55
2024-02-19T07:59:51.506Z,9.82
2024-02-19T08:02:19.081Z,9.40
2024-02-19T08:04:46.530Z,9.65
2024-02-19T08:07:13.979Z,9.75
2024-02-19T08:09:41.385Z,10.20
2024-02-19T08:12:09.789Z,10.18
2024-02-19T08:14:37.160Z,11.10
2024-02-19T08:17:04.788Z,9.85
2024-02-19T08:19:32.212Z,10.25
2024-02-19T08:22:00.057Z,10.38
2024-02-19T08:24:27.395Z,10.60
2024-02-19T08:26:54.690Z,9.73
2024-02-19T08:29:22.033Z,9.95
2024-02-19T08:31:49.429Z,10.68
2024-02-19T08:34:18.110Z,9.80
2024-02-19T08:36:45.678Z,10.20
2024-02-19T08:39:13.007Z,10.07
2024-02-19T08:41:40.295Z,10.20
2024-02-19T08:44:07.580Z,9.75
2024-02-19T08:46:34.934Z,10.10
2024-02-19T08:49:02.312Z,9.88
2024-02-19T08:51:30.659Z,10.90
2024-02-19T08:54:00.051Z,10.45
2024-02-19T08:56:27.731Z,11.57
2024-02-19T08:58:55.033Z,11.52
2024-02-19T09:01:22.583Z,11.38
2024-02-19T09:03:50.147Z,11.10
2024-02-19T09:06:18.108Z,10.48
2024-02-19T09:08:45.474Z,12.02
2024-02-19T09:11:12.784Z,10.38
2024-02-19T09:13:40.108Z,10.93
2024-02-19T09:16:07.625Z,11.70
2024-02-19T09:18:35.198Z,11.15
2024-02-19T09:21:02.640Z,11.18
2024-02-19T09:23:31.533Z,12.02
2024-02-19T09:25:59.202Z,10.88
2024-02-19T09:28:26.645Z,12.37
2024-02-19T09:30:54.787Z,11.00
2024-02-19T09:33:22.407Z,11.40
2024-02-19T09:35:49.735Z,12.10
2024-02-19T09:38:17.189Z,10.77
2024-02-19T09:40:48.587Z,10.63
2024-02-19T09:43:16.489Z,11.07
2024-02-19T09:45:44.696Z,12.63
2024-02-19T09:48:12.292Z,11.73
2024-02-19T09:50:48.434Z,11.38
2024-02-19T09:53:28.610Z,11.17
2024-02-19T09:55:57.158Z,10.93
2024-02-19T09:58:24.799Z,11.98
2024-02-19T10:00:52.347Z,11.75
2024-02-19T10:03:20.090Z,11.93
2024-02-19T10:05:48.957Z,11.90
2024-02-19T10:08:17.605Z,11.68
2024-02-19T10:10:46.532Z,11.88
2024-02-19T10:13:14.831Z,12.68
2024-02-19T10:15:42.498Z,11.02
2024-02-19T10:18:16.958Z,11.00
2024-02-19T10:20:52.072Z,12.20
2024-02-19T10:23:22.634Z,12.13
2024-02-19T10:25:50.827Z,12.13
2024-02-19T10:28:22.662Z,11.95
2024-02-19T10:30:50.305Z,12.17
2024-02-19T10:33:17.725Z,12.88
2024-02-19T10:35:45.476Z,12.35
2024-02-19T10:38:13.214Z,11.05
2024-02-19T10:40:40.555Z,10.85
2024-02-19T10:43:07.857Z,11.70
2024-02-19T10:45:35.617Z,11.80
2024-02-19T10:48:03.004Z,11.88
2024-02-19T10:50:33.726Z,11.95
2024-02-19T10:53:01.225Z,11.75
2024-02-19T10:55:36.554Z,12.00
2024-02-19T10:58:16.419Z,11.90
2024-02-19T11:00:44.341Z,11.77
2024-02-19T11:03:14.827Z,12.00
2024-02-19T11:05:44.070Z,12.18
2024-02-19T11:08:21.293Z,11.83
2024-02-19T11:10:51.511Z,12.52
2024-02-19T11:13:28.647Z,12.95
2024-02-19T11:15:56.647Z,12.00
2024-02-19T11:18:24.270Z,13.52
2024-02-19T11:20:51.919Z,12.63
2024-02-19T11:23:20.215Z,12.82
2024-02-19T11:25:47.867Z,13.25
2024-02-19T11:28:15.279Z,12.88
2024-02-19T11:30:42.725Z,12.32
2024-02-19T11:33:10.882Z,12.67
2024-02-19T11:35:39.095Z,11.63
2024-02-19T11:38:06.518Z,13.55
2024-02-19T11:40:34.390Z,14.35
2024-02-19T11:43:05.189Z,14.13
2024-02-19T11:45:32.955Z,15.77
2024-02-19T11:48:00.435Z,14.68
2024-02-19T11:50:31.198Z,9.02
2024-02-19T11:53:01.905Z,6.50
2024-02-19T11:55:31.431Z,7.13
2024-02-19T11:58:03.054Z,6.07
2024-02-19T12:00:32.162Z,6.15
2024-02-19T12:03:00.354Z,5.78
2024-02-19T12:05:28.158Z,6.35
2024-02-19T12:07:57.416Z,5.85
2024-02-19T12:10:24.942Z,6.77
2024-02-19T12:12:52.878Z,7.70
2024-02-19T12:15:20.767Z,8.25
2024-02-19T12:17:53.179Z,7.75
2024-02-19T12:20:21.071Z,7.90
2024-02-19T12:22:49.169Z,6.57
2024-02-19T12:25:16.617Z,7.50
2024-02-19T12:27:44.275Z,6.95
2024-02-19T12:30:11.712Z,6.82
2024-02-19T12:32:40.475Z,6.72
2024-02-19T12:35:08.512Z,7.00
2024-02-19T12:37:36.048Z,6.65
2024-02-19T12:40:04.619Z,8.52
2024-02-19T12:42:32.243Z,6.85
2024-02-19T12:44:59.554Z,7.60
2024-02-19T12:47:27.239Z,7.93
2024-02-19T12:49:54.811Z,6.88
2024-02-19T12:52:28.793Z,7.03
2024-02-19T12:54:56.672Z,7.55
2024-02-19T12:57:24.334Z,8.52
2024-02-19T12:59:51.798Z,7.73
2024-02-19T13:02:19.558Z,8.70
2024-02-19T13:04:48.364Z,7.68
2024-02-19T13:07:16.572Z,7.65
2024-02-19T13:09:45.431Z,8.60
2024-02-19T13:12:15.265Z,8.43
2024-02-19T13:14:44.631Z,7.50
2024-02-19T13:17:16.826Z,8.40
2024-02-19T13:19:49.565Z,7.47
2024-02-19T13:22:17.206Z,6.80
2024-02-19T13:24:44.673Z,7.97
2024-02-19T13:27:13.107Z,7.32
2024-02-19T13:29:40.523Z,8.07
2024-02-19T13:32:08.849Z,7.60
2024-02-19T13:34:37.074Z,9.55
2024-02-19T13:37:05.228Z,8.70
2024-02-19T13:39:34.345Z,8.80
2024-02-19T13:42:01.952Z,8.48
2024-02-19T13:44:29.305Z,8.25
2024-02-19T13:46:56.613Z,9.30
2024-02-19T13:49:24.029Z,8.53
2024-02-19T13:51:51.526Z,8.32
2024-02-19T13:54:18.978Z,7.72
2024-02-19T13:56:46.747Z,8.27
2024-02-19T13:59:15.709Z,8.48
2024-02-19T14:01:43.331Z,8.77
2024-02-19T14:04:10.888Z,9.00
2024-02-19T14:06:38.745Z,8.15
2024-02-19T14:09:06.211Z,8.70
2024-02-19T14:11:34.085Z,9.38
2024-02-19T14:14:03.143Z,8.07
2024-02-19T14:16:31.687Z,9.15
2024-02-19T14:19:00.624Z,9.10
2024-02-19T14:21:29.600Z,8.75
2024-02-19T14:23:57.233Z,9.50
2024-02-19T14:26:25.169Z,9.37
2024-02-19T14:28:55.642Z,8.90
2024-02-19T14:31:23.921Z,9.40
2024-02-19T14:33:52.446Z,8.70
2024-02-19T14:36:20.925Z,9.70
2024-02-19T14:38:50.233Z,9.20
2024-02-19T14:41:17.602Z,10.13
2024-02-19T14:43:47.726Z,10.35
2024-02-19T14:46:15.013Z,9.65
2024-02-19T14:48:43.756Z,9.85
2024-02-19T14:51:12.360Z,9.87
2024-02-19T14:53:40.604Z,9.82
2024-02-19T14:56:09.142Z,9.35
2024-02-19T14:58:36.467Z,10.00
2024-02-19T15:01:03.937Z,10.40
2024-02-19T15:03:31.335Z,10.27
2024-02-19T15:05:59.046Z,10.70
2024-02-19T15:08:26.485Z,10.85
2024-02-19T15:10:53.896Z,9.63
2024-02-19T15:13:21.299Z,10.27
2024-02-19T15:15:48.763Z,11.00
2024-02-19T15:18:16.737Z,10.65
2024-02-19T15:20:44.624Z,10.80
2024-02-19T15:23:12.152Z,10.57
2024-02-19T15:25:41.034Z,10.43
2024-02-19T15:28:09.140Z,10.93
2024-02-19T15:30:36.469Z,11.02
2024-02-19T15:33:03.967Z,10.48
2024-02-19T15:35:31.456Z,10.25
2024-02-19T15:37:58.895Z,10.45
2024-02-19T15:40:26.938Z,10.23
2024-02-19T15:42:57.713Z,10.93
2024-02-19T15:45:25.050Z,10.82
2024-02-19T15:47:52.404Z,10.40
2024-02-19T15:50:19.937Z,11.48
2024-02-19T15:52:55.497Z,10.57
2024-02-19T15:55:29.334Z,11.10
2024-02-19T15:57:58.240Z,11.88
2024-02-19T16:00:25.801Z,11.15
2024-02-19T16:02:53.079Z,12.20
2024-02-19T16:05:20.441Z,14.20
2024-02-19T16:07:50.213Z,16.75
2024-02-19T16:10:17.564Z,17.65
2024-02-19T16:12:46.312Z,18.45
2024-02-19T16:15:14.420Z,18.42
2024-02-19T16:17:41.923Z,19.43
2024-02-19T16:20:10.040Z,20.27
2024-02-19T16:22:37.837Z,19.15
2024-02-19T16:25:08.043Z,19.80
2024-02-19T16:27:36.821Z,19.58
2024-02-19T16:30:07.101Z,18.80
2024-02-19T16:32:36.585Z,18.50
2024-02-19T16:35:04.387Z,19.35
2024-02-19T16:37:32.165Z,18.00
2024-02-19T16:39:59.676Z,18.55
2024-02-19T16:42:27.016Z,18.93
2024-02-19T16:44:54.340Z,18.65
2024-02-19T16:47:21.650Z,19.30
2024-02-19T16:49:49.010Z,20.45
2024-02-19T16:52:16.729Z,18.90
2024-02-19T16:54:44.588Z,20.20
2024-02-19T16:57:11.975Z,18.73
2024-02-19T16:59:39.268Z,20.60
2024-02-19T17:02:06.651Z,17.85
2024-02-19T17:04:34.121Z,17.67
2024-02-19T17:07:03.088Z,18.10
2024-02-19T17:09:33.328Z,18.27
2024-02-19T17:12:01.051Z,18.13
2024-02-19T17:14:28.376Z,21.80
2024-02-19T17:16:58.155Z,20.60
2024-02-19T17:19:25.756Z,22.30
2024-02-19T17:21:53.144Z,22.58
2024-02-19T17:24:20.711Z,23.27
2024-02-19T17:26:48.490Z,23.85
2024-02-19T17:29:15.840Z,24.90
2024-02-19T17:31:46.440Z,23.23
2024-02-19T17:34:14.634Z,23.70
2024-02-19T17:36:42.027Z,24.55
2024-02-19T17:39:09.304Z,24.63
2024-02-19T17:41:36.568Z,24.58
2024-02-19T17:44:03.945Z,28.70
2024-02-19T17:46:31.443Z,34.72
2024-02-19T17:48:59.063Z,33.15
2024-02-19T17:51:29.653Z,33.55
2024-02-19T17:53:59.751Z,34.15
2024-02-19T17:56:29.561Z,34.27
2024-02-19T17:58:57.288Z,33.83
2024-02-19T18:01:26.960Z,35.22
2024-02-19T18:03:54.944Z,34.35
2024-02-19T18:06:22.432Z,35.05
2024-02-19T18:08:52.939Z,33.83
2024-02-19T18:11:20.475Z,34.20
2024-02-19T18:13:48.095Z,33.03
2024-02-19T18:16:15.972Z,34.10
2024-02-19T18:18:45.876Z,33.30
2024-02-19T18:21:13.365Z,33.03
2024-02-19T18:23:40.776Z,32.70
2024-02-19T18:26:08.445Z,30.85
2024-02-19T18:28:37.063Z,30.73
2024-02-19T18:31:13.965Z,31.65
2024-02-19T18:33:41.281Z,31.80
2024-02-19T18:36:08.592Z,33.15
2024-02-19T18:38:38.511Z,34.30
2024-02-19T18:41:07.031Z,31.95
2024-02-19T18:43:34.531Z,32.00
2024-02-19T18:46:02.911Z,31.43
2024-02-19T18:48:31.667Z,29.67
2024-02-19T18:50:59.854Z,29.33
2024-02-19T18:53:27.917Z,30.90
2024-02-19T18:56:02.495Z,31.65
2024-02-19T18:58:30.483Z,31.13
2024-02-19T19:01:01.698Z,31.70
2024-02-19T19:03:29.315Z,31.00
2024-02-19T19:06:00.462Z,32.58
2024-02-19T19:08:27.912Z,31.80
2024-02-19T19:10:55.264Z,28.47
2024-02-19T19:13:22.631Z,28.30
2024-02-19T19:15:50.144Z,29.02
2024-02-19T19:18:17.794Z,25.88
2024-02-19T19:20:45.199Z,25.48
2024-02-19T19:23:12.566Z,26.93
2024-02-19T19:25:39.921Z,25.80
2024-02-19T19:28:07.499Z,24.98
2024-02-19T19:30:34.862Z,24.27
2024-02-19T19:33:02.250Z,25.13
2024-02-19T19:35:29.706Z,26.17
2024-02-19T19:37:58.168Z,22.98
2024-02-19T19:40:25.595Z,21.15
2024-02-19T19:42:54.079Z,23.83
2024-02-19T19:45:22.949Z,22.80
2024-02-19T19:47:50.482Z,21.77
2024-02-19T19:50:20.151Z,22.85
2024-02-19T19:52:47.843Z,23.50
2024-02-19T19:55:15.322Z,23.13
2024-02-19T19:57:48.138Z,24.75
2024-02-19T20:00:16.182Z,24.83
2024-02-19T20:02:45.653Z,24.00
2024-02-19T20:05:13.342Z,24.35
2024-02-19T20:07:41.053Z,25.10
2024-02-19T20:10:11.662Z,25.30
2024-02-19T20:12:38.956Z,25.23
2024-02-19T20:15:07.173Z,26.23
2024-02-19T20:17:36.214Z,26.63
2024-02-19T20:20:04.507Z,26.75
2024-02-19T20:22:32.165Z,26.73
2024-02-19T20:24:59.591Z,25.37
2024-02-19T20:27:27.014Z,25.42
2024-02-19T20:29:54.912Z,26.63
2024-02-19T20:32:23.355Z,25.80
2024-02-19T20:34:50.981Z,24.63
2024-02-19T20:37:18.505Z,24.87
2024-02-19T20:39:46.367Z,24.08
2024-02-19T20:42:16.086Z,23.27
2024-02-19T20:44:46.843Z,24.58
2024-02-19T20:47:14.415Z,23.60
2024-02-19T20:49:44.024Z,25.33
2024-02-19T20:52:11.780Z,24.75
2024-02-19T20:54:39.145Z,26.38
2024-02-19T20:57:09.687Z,29.50
2024-02-19T20:59:37.492Z,33.30
2024-02-19T21:02:05.158Z,33.03
2024-02-19T21:04:36.307Z,34.88
2024-02-19T21:07:07.237Z,33.28
2024-02-19T21:09:36.490Z,39.35
2024-02-19T21:12:04.151Z,39.42
2024-02-19T21:14:31.532Z,39.47
2024-02-19T21:16:59.452Z,39.20
2024-02-19T21:19:26.916Z,38.78
2024-02-19T21:21:54.526Z,41.65
2024-02-19T21:24:21.982Z,40.28
2024-02-19T21:26:49.288Z,36.87
2024-02-19T21:29:16.620Z,36.72
2024-02-19T21:31:44.008Z,35.92
2024-02-19T21:34:13.028Z,35.20
2024-02-19T21:36:40.859Z,34.72
2024-02-19T21:39:08.342Z,33.13
2024-02-19T21:41:38.292Z,35.70
2024-02-19T21:44:08.569Z,33.15
2024-02-19T21:46:37.493Z,33.95
2024-02-19T21:49:05.190Z,30.98
2024-02-19T21:51:32.666Z,28.80
2024-02-19T21:53:59.956Z,30.73
2024-02-19T21:56:27.468Z,33.38
2024-02-19T21:58:54.992Z,34.15
2024-02-19T22:01:22.763Z,32.50
2024-02-19T22:03:51.442Z,32.50
2024-02-19T22:06:18.995Z,32.75
2024-02-19T22:08:46.349Z,30.98
2024-02-19T22:11:15.514Z,30.67
2024-02-19T22:13:42.793Z,32.03
2024-02-19T22:16:10.188Z,31.97
2024-02-19T22:18:38.797Z,32.40
2024-02-19T22:21:06.224Z,32.80
2024-02-19T22:23:33.477Z,35.45
2024-02-19T22:26:00.771Z,34.80
2024-02-19T22:28:32.016Z,34.60
2024-02-19T22:30:59.553Z,36.10
2024-02-19T22:33:27.226Z,37.15
2024-02-19T22:35:54.564Z,37.65
2024-02-19T22:38:21.828Z,35.97
2024-02-19T22:40:49.122Z,35.07
2024-02-19T22:43:16.390Z,37.92
2024-02-19T22:45:43.677Z,38.20
2024-02-19T22:48:11.267Z,37.67
2024-02-19T22:50:38.989Z,38.22
2024-02-19T22:53:06.408Z,39.43
2024-02-19T22:55:33.764Z,38.88
2024-02-19T22:58:01.128Z,37.30
2024-02-19T23:00:35.749Z,38.83
2024-02-19T23:03:04.627Z,37.13
2024-02-19T23:05:32.708Z,38.83
2024-02-19T23:08:00.580Z,38.78
2024-02-19T23:10:28.097Z,38.35
2024-02-19T23:12:55.535Z,32.88
2024-02-19T23:15:22.911Z,35.22
2024-02-19T23:17:50.385Z,28.47
2024-02-19T23:20:17.755Z,36.08
2024-02-19T23:22:46.473Z,33.92
2024-02-19T23:25:14.227Z,34.35
2024-02-19T23:27:41.717Z,34.20
2024-02-19T23:30:09.342Z,37.13
2024-02-19T23:32:37.238Z,35.05
2024-02-19T23:35:06.463Z,36.10
2024-02-19T23:37:34.104Z,35.33
2024-02-19T23:40:01.716Z,33.17
2024-02-19T23:42:29.210Z,36.03
2024-02-19T23:44:56.494Z,37.85
2024-02-19T23:47:23.930Z,35.63
2024-02-19T23:49:51.284Z,34.92
2024-02-19T23:52:18.693Z,33.30
2024-02-19T23:54:46.040Z,36.43
2024-02-19T23:57:13.366Z,37.30
2024-02-19T23:59:40.719Z,32.75
